Pagina principale
METAR-TAF:

METAR-TAF

Aeroporti :

Aeroporto di Southampton

Southampton, Inghilterra

latitudine: 50-54N, longitudine: 001-24W, altezza: 9 m

Osservazione

Il bollettino è stato emesso 3 ore e 18 minuti fa, alle 21:50 UTC
Vento 9 kt da est, variando fra nord-est e est/sud-est
Temperature 10°C
Umidità 87%
Pressione 991 hPa
Visibilità 10 km o più
Poco nuvoloso ad un'altezza di 2500 ft

METAR: EGHI 222150Z 08009KT 050V110 9999 FEW025 10/08 Q0991

Ora: 01:08 (01:08 UTC)

Previsione

Il bollettino è stato emesso 5 ore e 5 minuti fa, alle 20:03 UTC
Previsione valida dal 22 alle 21 UTC al 22 alle 23 UTC
Vento 8 kt da est/sud-est
Visibilità 10 km o più
Poco nuvoloso ad un'altezza di 2000 ft
Nubi sparse ad un'altezza di 4000 ft
Probabilità 30% :
Temporaneamente
dal 22 alle 21 UTC al 22 alle 23 UTC
Visibilità: 7000 m
Nuvoloso ad un'altezza di 1200 ft
pioggia

TAF: EGHI 222003Z 2221/2223 11008KT 9999 FEW020 SCT040 PROB30 TEMPO 2221/2223 7000 RA BKN012

Osservazioni e previsioni meteorologiche di più di 4000 aeroporti (messaggi METAR e TAF).

Le stazioni disponibili sono rappresentate dai dischi gialli e rossi sulla carta.

Puntare il mouse per vedere il nome della stazione.

Clicca sopra per visualizzare le osservazioni e previsioni meteorologiche.

Per cambiare la mappa : fare clic sui pulsanti verdi con una croce nera per ingrandire, il pulsante verde con un trattino per diminuire, o sulla freccia verde per le mappe adiacenti.


METAR-TAF: